Time;durP1;ratioP1;P1;durP2;ratioP2;P2;SDS_P1;SDS_P2;PMS_P1;PMS_P2;Temp;Humidity;BMP_temperature;BMP_pressure;BME280_temperature;BME280_humidity;BME280_pressure;Samples;Min_cycle;Max_cycle;Signal;HPM_P1;HPM_P2
2023/05/02 00:04:00;;;;;;;0.63;0.47;;;;;;;;;;20934919;28;20780;-81
2023/05/02 00:14:02;;;;;;;0.63;0.53;;;;;;;;;;20928299;28;20226;-81
2023/05/02 00:24:04;;;;;;;0.77;0.70;;;;;;;;;;20901734;28;20281;-81
2023/05/02 00:34:05;;;;;;;0.83;0.50;;;;;;;;;;20889063;28;20238;-81
2023/05/02 00:44:07;;;;;;;0.90;0.80;;;;;;;;;;20999106;28;20221;-82
2023/05/02 00:54:10;;;;;;;0.87;0.60;;;;;;;;;;20933355;28;20592;-80
2023/05/02 01:04:38;;;;;;;1.20;0.60;;;15.10;99.90;;;;;;20980617;28;20209;-81
2023/05/02 01:14:46;;;;;;;1.00;0.70;;;;;;;;;;20980527;28;20221;-80
2023/05/02 01:24:54;;;;;;;0.57;0.50;;;;;;;;;;20996735;28;20610;-81
2023/05/02 01:34:57;;;;;;;0.50;0.40;;;;;;;;;;20996959;28;20639;-81
2023/05/02 01:45:00;;;;;;;1.37;0.63;;;14.60;99.90;;;;;;20995792;28;20221;-80
2023/05/02 01:55:03;;;;;;;1.17;0.60;;;;;;;;;;20993489;28;20229;-82
2023/05/02 02:05:06;;;;;;;1.37;0.80;;;14.50;99.90;;;;;;20995066;28;20217;-82
2023/05/02 02:15:29;;;;;;;0.73;0.60;;;;;;;;;;21007493;28;20225;-82
2023/05/02 02:25:31;;;;;;;1.47;0.90;;;;;;;;;;21022550;28;20221;-81
2023/05/02 02:35:39;;;;;;;1.27;0.90;;;;;;;;;;20974982;28;20718;-80
2023/05/02 02:45:52;;;;;;;1.20;1.00;;;;;;;;;;20926564;28;20263;-81
2023/05/02 02:55:59;;;;;;;2.13;0.90;;;14.10;99.90;;;;;;20890713;28;20226;-81
2023/05/02 03:06:03;;;;;;;1.17;0.73;;;13.80;99.90;;;;;;20980057;28;20205;-81
2023/05/02 03:16:24;;;;;;;1.47;1.10;;;;;;;;;;20941645;28;20235;-81
2023/05/02 03:26:26;;;;;;;1.50;0.97;;;;;;;;;;20965922;28;20224;-81
2023/05/02 03:36:28;;;;;;;1.67;1.07;;;;;;;;;;20905554;28;20264;-81
2023/05/02 03:46:30;;;;;;;2.73;1.93;;;;;;;;;;20888724;28;20283;-81
2023/05/02 03:56:32;;;;;;;3.43;2.00;;;;;;;;;;20904592;28;20283;-80
2023/05/02 04:06:46;;;;;;;3.23;1.60;;;;;;;;;;20887284;28;20755;-81
2023/05/02 04:16:51;;;;;;;1.83;1.20;;;13.40;99.90;;;;;;20919163;28;20954;-80
2023/05/02 04:26:58;;;;;;;3.47;1.80;;;;;;;;;;20918058;28;20247;-80
2023/05/02 04:37:01;;;;;;;4.00;1.90;;;;;;;;;;20903418;28;20772;-80
2023/05/02 04:47:03;;;;;;;3.60;2.20;;;;;;;;;;20861742;28;20218;-80
2023/05/02 04:57:06;;;;;;;4.40;3.20;;;;;;;;;;20844607;28;20219;-79
2023/05/02 05:07:11;;;;;;;3.97;3.07;;;;;;;;;;20833040;28;20219;-79
2023/05/02 05:17:13;;;;;;;4.60;3.53;;;;;;;;;;20856033;28;20217;-80
2023/05/02 05:27:15;;;;;;;4.40;3.63;;;;;;;;;;20895778;28;20210;-81
2023/05/02 05:37:17;;;;;;;7.30;4.23;;;;;;;;;;20896071;28;20583;-81
2023/05/02 05:47:23;;;;;;;6.07;4.57;;;;;;;;;;20897642;28;20283;-81
2023/05/02 05:57:26;;;;;;;5.67;4.70;;;;;;;;;;20894542;28;20230;-81
2023/05/02 06:07:29;;;;;;;9.40;5.33;;;;;;;;;;20826757;28;20226;-82
2023/05/02 06:17:31;;;;;;;9.27;5.93;;;;;;;;;;20810797;28;20234;-80
2023/05/02 06:27:33;;;;;;;10.70;7.30;;;;;;;;;;20826853;28;20261;-79
2023/05/02 06:37:34;;;;;;;8.83;7.07;;;;;;;;;;20842823;28;20264;-80
2023/05/02 06:47:36;;;;;;;8.60;6.57;;;;;;;;;;20884188;28;20218;-80
2023/05/02 06:57:38;;;;;;;10.10;7.07;;;;;;;;;;20902074;28;20275;-81
2023/05/02 07:07:39;;;;;;;9.97;7.00;;;;;;;;;;20904367;28;20206;-80
2023/05/02 07:17:42;;;;;;;8.30;6.40;;;;;;;;;;20904644;28;20229;-79
2023/05/02 07:27:43;;;;;;;9.13;6.63;;;;;;;;;;20911913;28;20222;-80
2023/05/02 07:37:45;;;;;;;9.03;6.30;;;;;;;;;;20895258;28;20781;-80
2023/05/02 07:47:47;;;;;;;8.83;6.67;;;;;;;;;;20920594;28;20283;-80
2023/05/02 07:57:49;;;;;;;9.33;7.20;;;;;;;;;;20985818;28;20367;-79
2023/05/02 08:07:51;;;;;;;8.43;6.20;;;;;;;;;;20927739;28;20210;-79
2023/05/02 08:17:52;;;;;;;7.70;5.73;;;;;;;;;;20935691;28;20230;-79
2023/05/02 08:27:54;;;;;;;7.40;5.80;;;;;;;;;;20906912;28;20289;-79
2023/05/02 08:37:56;;;;;;;8.80;5.83;;;;;;;;;;20915465;28;20236;-79
2023/05/02 08:47:59;;;;;;;8.33;5.60;;;;;;;;;;20916908;28;20687;-79
2023/05/02 08:58:03;;;;;;;7.83;5.97;;;;;;;;;;20924060;28;20241;-79
2023/05/02 09:08:05;;;;;;;7.03;5.00;;;;;;;;;;20918893;28;20222;-79
2023/05/02 09:18:06;;;;;;;6.90;5.03;;;;;;;;;;20918770;28;20241;-79
2023/05/02 09:28:08;;;;;;;6.43;4.00;;;;;;;;;;20900880;28;20547;-80
2023/05/02 09:38:19;;;;;;;5.83;4.27;;;17.30;99.90;;;;;;20915542;28;20268;-80
2023/05/02 09:48:21;;;;;;;5.43;3.90;;;;;;;;;;20914576;28;20210;-80
2023/05/02 09:58:24;;;;;;;3.70;2.60;;;;;;;;;;20929373;28;20626;-80
2023/05/02 10:08:27;;;;;;;4.07;2.70;;;17.80;99.90;;;;;;20912328;28;20218;-79
2023/05/02 10:18:47;;;;;;;4.30;2.60;;;18.10;99.90;;;;;;20915551;28;20233;-79
2023/05/02 10:28:49;;;;;;;4.03;2.67;;;18.30;99.90;;;;;;20911085;28;20571;-79
2023/05/02 10:38:51;;;;;;;4.23;2.60;;;;;;;;;;20912392;28;20303;-79
2023/05/02 10:49:21;;;;;;;3.57;2.10;;;;;;;;;;20908848;28;20717;-79
2023/05/02 10:59:27;;;;;;;3.80;2.53;;;;;;;;;;20907005;28;20234;-79
2023/05/02 11:09:31;;;;;;;3.40;2.50;;;;;;;;;;20910797;28;20231;-78
2023/05/02 11:19:35;;;;;;;2.97;2.10;;;;;;;;;;20920741;28;20270;-79
2023/05/02 11:30:08;;;;;;;4.50;2.80;;;19.90;99.90;;;;;;20942926;28;20195;-79
2023/05/02 11:40:11;;;;;;;3.20;1.90;;;20.60;99.90;;;;;;20910784;28;20225;-79
2023/05/02 11:50:16;;;;;;;2.50;1.43;;;;;;;;;;20952905;28;20277;-79
2023/05/02 12:00:18;;;;;;;2.43;1.07;;;;;;;;;;20891377;28;20232;-80
2023/05/02 12:10:20;;;;;;;2.30;1.10;;;;;;;;;;20930840;28;20223;-80
2023/05/02 12:20:21;;;;;;;2.20;1.30;;;;;;;;;;20924770;28;20294;-81
2023/05/02 12:30:30;;;;;;;1.80;0.97;;;21.70;99.90;;;;;;20906225;28;20624;-80
2023/05/02 12:40:32;;;;;;;1.93;1.43;;;;;;;;;;20927891;28;20236;-80
2023/05/02 12:50:37;;;;;;;2.13;1.30;;;21.00;99.90;;;;;;20907466;28;20216;-80
2023/05/02 13:00:41;;;;;;;1.43;1.03;;;;;;;;;;20923061;28;20586;-80
2023/05/02 13:10:43;;;;;;;2.60;1.47;;;;;;;;;;20938970;28;20216;-81
2023/05/02 13:20:45;;;;;;;2.70;1.50;;;;;;;;;;20902506;28;20260;-79
2023/05/02 13:30:46;;;;;;;3.90;1.80;;;;;;;;;;20923393;28;20227;-79
2023/05/02 13:40:49;;;;;;;2.17;1.20;;;;;;;;;;20961375;28;20240;-80
2023/05/02 13:50:50;;;;;;;1.93;1.00;;;;;;;;;;20982033;28;20223;-80
2023/05/02 14:00:52;;;;;;;2.83;1.30;;;;;;;;;;20942981;28;20595;-80
2023/05/02 14:10:54;;;;;;;1.67;1.00;;;;;;;;;;20953836;28;20232;-80
2023/05/02 14:20:58;;;;;;;3.50;1.30;;;;;;;;;;20988765;28;20298;-80
2023/05/02 14:31:00;;;;;;;1.47;1.03;;;;;;;;;;20988327;28;20215;-79
2023/05/02 14:41:02;;;;;;;1.90;1.10;;;;;;;;;;20938105;28;20282;-80
2023/05/02 14:51:05;;;;;;;1.83;1.17;;;;;;;;;;20908857;28;20792;-81
2023/05/02 15:01:14;;;;;;;2.87;1.50;;;;;;;;;;20898493;28;20803;-82
2023/05/02 15:11:16;;;;;;;1.50;0.97;;;;;;;;;;20987707;28;20224;-82
2023/05/02 15:21:18;;;;;;;1.53;0.87;;;;;;;;;;20969619;28;20254;-81
2023/05/02 15:31:20;;;;;;;2.83;0.70;;;;;;;;;;20986263;28;20640;-81
2023/05/02 15:41:24;;;;;;;1.33;0.70;;;;;;;;;;20985626;28;20293;-81
2023/05/02 15:51:26;;;;;;;1.30;0.80;;;;;;;;;;20931129;28;20248;-81
2023/05/02 16:01:28;;;;;;;1.37;0.80;;;;;;;;;;20881373;28;20241;-82
2023/05/02 16:11:36;;;;;;;1.27;0.70;;;;;;;;;;20878376;28;20219;-84
2023/05/02 16:21:41;;;;;;;2.23;0.90;;;21.70;99.90;;;;;;20956981;28;20233;-81
2023/05/02 16:31:43;;;;;;;1.30;0.80;;;;;;;;;;20927646;28;20227;-81
2023/05/02 16:41:48;;;;;;;1.10;0.87;;;;;;;;;;20972837;28;20775;-81
2023/05/02 16:51:52;;;;;;;1.40;1.10;;;;;;;;;;20920291;28;20589;-83
2023/05/02 17:01:55;;;;;;;1.67;0.77;;;;;;;;;;20856598;28;20235;-83
2023/05/02 17:11:57;;;;;;;2.30;1.17;;;;;;;;;;20971904;28;20260;-83
2023/05/02 17:21:59;;;;;;;1.33;0.97;;;;;;;;;;20990446;28;20286;-83
2023/05/02 17:32:01;;;;;;;1.67;1.10;;;;;;;;;;20986906;28;20764;-82
2023/05/02 17:42:02;;;;;;;2.67;0.70;;;;;;;;;;20921587;28;20241;-82
2023/05/02 17:52:06;;;;;;;0.60;0.60;;;;;;;;;;20914568;28;20214;-82
2023/05/02 18:02:07;;;;;;;0.90;0.50;;;;;;;;;;20932944;28;20222;-82
2023/05/02 18:12:10;;;;;;;1.40;0.80;;;;;;;;;;20978162;28;20238;-82
2023/05/02 18:22:12;;;;;;;0.90;0.70;;;;;;;;;;20888395;28;20240;-81
2023/05/02 18:32:17;;;;;;;1.07;0.60;;;;;;;;;;20895334;28;20323;-82
2023/05/02 18:42:19;;;;;;;1.47;0.93;;;;;;;;;;20887033;28;20299;-83
2023/05/02 18:52:21;;;;;;;1.10;0.80;;;;;;;;;;20971684;28;20225;-83
2023/05/02 19:02:29;;;;;;;1.50;0.80;;;;;;;;;;20929641;28;20287;-84
2023/05/02 19:12:34;;;;;;;1.30;0.90;;;;;;;;;;20953530;28;20220;-82
2023/05/02 19:22:37;;;;;;;1.13;0.80;;;;;;;;;;20937595;28;20233;-81
2023/05/02 19:32:39;;;;;;;1.90;1.20;;;;;;;;;;20905510;28;20706;-82
2023/05/02 19:42:42;;;;;;;1.40;0.90;;;;;;;;;;20930743;28;20226;-81
2023/05/02 19:52:45;;;;;;;1.07;0.80;;;;;;;;;;20884715;28;20222;-82
2023/05/02 20:02:47;;;;;;;2.67;1.43;;;;;;;;;;20918809;28;20230;-82
2023/05/02 20:12:49;;;;;;;2.93;1.30;;;;;;;;;;20831980;28;20222;-80
2023/05/02 20:22:53;;;;;;;2.47;1.27;;;;;;;;;;20834636;28;20219;-79
2023/05/02 20:32:55;;;;;;;1.83;1.20;;;;;;;;;;20905070;28;20548;-81
2023/05/02 20:43:00;;;;;;;2.73;1.20;;;;;;;;;;20915439;28;20209;-80
2023/05/02 20:53:03;;;;;;;2.23;1.10;;;;;;;;;;20896971;28;20687;-82
2023/05/02 21:03:05;;;;;;;1.97;1.27;;;;;;;;;;20898344;28;20214;-82
2023/05/02 21:13:07;;;;;;;1.80;1.20;;;;;;;;;;20935074;28;20213;-82
2023/05/02 21:23:11;;;;;;;2.63;1.40;;;;;;;;;;20910464;28;20578;-82
2023/05/02 21:33:16;;;;;;;2.47;1.40;;;;;;;;;;20910696;28;20210;-82
2023/05/02 21:43:18;;;;;;;2.87;1.17;;;;;;;;;;20910064;28;20579;-82
2023/05/02 21:53:20;;;;;;;1.67;1.13;;;;;;;;;;20877017;28;20291;-82
2023/05/02 22:03:22;;;;;;;1.27;0.90;;;;;;;;;;20908269;28;20222;-81
2023/05/02 22:13:24;;;;;;;1.43;0.93;;;;;;;;;;20845383;28;20689;-81
2023/05/02 22:23:26;;;;;;;1.47;0.83;;;;;;;;;;20834003;28;20295;-83
2023/05/02 22:33:28;;;;;;;3.20;1.17;;;;;;;;;;20841708;28;20273;-83
2023/05/02 22:43:29;;;;;;;1.47;1.07;;;;;;;;;;20841715;28;20218;-82
2023/05/02 22:53:31;;;;;;;1.50;1.10;;;;;;;;;;20859110;28;20280;-82
2023/05/02 23:03:33;;;;;;;1.73;0.90;;;;;;;;;;20812974;28;20223;-80
2023/05/02 23:13:34;;;;;;;1.10;0.90;;;;;;;;;;20823465;28;20226;-82
2023/05/02 23:23:36;;;;;;;3.67;0.90;;;;;;;;;;20824087;28;20221;-81
2023/05/02 23:33:38;;;;;;;1.40;0.90;;;;;;;;;;20807517;28;20716;-81
2023/05/02 23:43:40;;;;;;;1.60;1.00;;;;;;;;;;20806809;28;20240;-81
2023/05/02 23:53:41;;;;;;;1.73;0.90;;;;;;;;;;20823373;28;20265;-82
